Terminal Aerodrome Forecast
Issued by NWS Shreveport, LA

Home | Current Version | Previous Version | Text Only | Print | Product List | Glossary On
Versions: 1 2 3 4 5 6 7 8 9 10 11 12 13 14 15 16 17 18
000
FTUS44 KSHV 290500
TAFTXK
TAF
KTXK 290525Z 2906/3006 00000KT P6SM BKN060 BKN090
     FM291400 19008KT P6SM SCT060
     FM291800 19007KT P6SM VCTS BKN050CB
     FM300000 17005KT P6SM BKN050 BKN110=

USA.gov is the U.S. government's official web portal to all federal, state and local government web resources and services.